LTS weather

Altus Air Force Base
Altus, Oklahoma, United States

Public forecast

Using degrees Fahrenheit for public forecast. Weather courtesy of forecast.io.

Current aviation weather report (METAR) for Altus Air Force Base

Retrieved 2020/03/29 10:56 UTC (1 hour ago):

KLTS 291056Z AUTO 35009KT 10SM CLR 05/01 A3009 RMK AO2 SLP186 T00520013

Aviation forecast (TAF) for Altus Air Force Base

Forecast is more than 12 hours old.

Retrieved 2020-03-28 01:59 UTC (1 day ago):

TAF COR KLTS 280644Z 2801/2907 17006KT 9999 BKN200 520302 QNH2955INS BECMG 2805/2806 20012KT 9999 SCT200 510053 QNH2958INS BECMG 2811/2812 25015KT 9999 FEW140 520456 QNH2967INS BECMG 2814/2815 27020G30KT 9999 SKC 510003 520703 QNH2972INS BECMG 2823/2824 34012KT 9999 SCT090 510033 QNH2980INS TX22/2821Z TN14/2812Z LAST NO AMDS AFT 2806 NEXT 3009